createdAt,value
2023-07-24T00:11:25.334Z,62.5
2023-07-24T00:26:59.761Z,63
2023-07-24T00:42:34.384Z,63.7
2023-07-24T00:58:08.560Z,64
2023-07-24T01:13:42.770Z,64.6
2023-07-24T01:29:16.936Z,65
2023-07-24T01:44:51.127Z,65.4
2023-07-24T02:00:25.383Z,66.1
2023-07-24T02:15:59.762Z,66.9
2023-07-24T02:31:34.352Z,67
2023-07-24T02:47:08.610Z,67.5
2023-07-24T03:02:43.139Z,66.4
2023-07-24T03:18:17.982Z,65.9
2023-07-24T03:33:52.283Z,65.5
2023-07-24T03:49:26.450Z,64.4
2023-07-24T04:05:00.789Z,64.1
2023-07-24T04:20:35.093Z,63
2023-07-24T04:36:09.407Z,62.1
2023-07-24T04:51:43.676Z,60.7
2023-07-24T05:07:17.912Z,57.8
2023-07-24T05:22:52.312Z,55.5
2023-07-24T05:38:26.750Z,54.2
2023-07-24T05:54:00.980Z,53.1
2023-07-24T06:09:35.265Z,52.8
2023-07-24T06:25:09.551Z,49.4
2023-07-24T06:40:43.862Z,47.5
2023-07-24T06:56:18.150Z,45.3
2023-07-24T07:11:52.531Z,43.1
2023-07-24T07:27:26.982Z,43.4
2023-07-24T07:43:01.297Z,42.6
2023-07-24T07:58:35.722Z,42.6
2023-07-24T08:14:10.376Z,42
2023-07-24T08:29:45.243Z,42.1
2023-07-24T08:45:19.760Z,41.8
2023-07-24T09:00:54.310Z,42.5
2023-07-24T09:16:30.076Z,42.5
2023-07-24T09:32:05.283Z,41.8
2023-07-24T09:48:11.224Z,43.3
2023-07-24T10:04:11.159Z,42.2
2023-07-24T10:19:45.800Z,41.3
2023-07-24T10:35:20.159Z,41.2
2023-07-24T10:50:56.177Z,41.1
2023-07-24T11:06:30.608Z,42
2023-07-24T11:22:05.027Z,43
2023-07-24T11:37:39.444Z,44
2023-07-24T11:53:13.886Z,43.8
2023-07-24T12:08:48.467Z,43
2023-07-24T12:24:23.050Z,41.9
2023-07-24T12:39:57.518Z,40.5
2023-07-24T12:55:31.905Z,39.4
2023-07-24T13:11:07.551Z,40.8
2023-07-24T13:26:42.073Z,41
2023-07-24T13:42:16.514Z,42.3
2023-07-24T13:57:50.882Z,42.9
2023-07-24T14:13:25.228Z,45.3
2023-07-24T14:28:59.813Z,45
2023-07-24T14:44:34.181Z,43.3
2023-07-24T15:00:09.124Z,43.8
2023-07-24T15:15:50.213Z,43.1
2023-07-24T15:31:24.888Z,43.7
2023-07-24T15:47:00.226Z,43.9
2023-07-24T16:02:35.149Z,43.6
2023-07-24T16:18:32.487Z,44
2023-07-24T16:34:06.930Z,43.9
2023-07-24T16:49:41.254Z,44.7
2023-07-24T17:05:15.548Z,45.4
2023-07-24T17:20:49.853Z,53.5
2023-07-24T17:36:24.073Z,61.4
2023-07-24T17:51:58.663Z,72.1
2023-07-24T18:07:32.843Z,81.9
2023-07-24T18:23:06.985Z,83.9
2023-07-24T18:38:41.141Z,87.5
2023-07-24T18:54:16.634Z,89.8
2023-07-24T19:09:50.841Z,89.2
2023-07-24T19:25:25.011Z,87.6
2023-07-24T19:40:59.242Z,88
2023-07-24T19:56:33.393Z,89.7
2023-07-24T20:12:07.589Z,89.9
2023-07-24T20:27:41.802Z,90.6
2023-07-24T20:43:15.937Z,90.7
2023-07-24T20:58:50.089Z,91.1
2023-07-24T21:14:24.296Z,90.7
2023-07-24T21:29:58.477Z,89.7
2023-07-24T21:45:32.823Z,86
2023-07-24T22:01:07.123Z,83.4
2023-07-24T22:16:41.433Z,81.4
2023-07-24T22:32:15.637Z,84.4
2023-07-24T22:47:50.197Z,86.6
2023-07-24T23:03:24.886Z,87.7
2023-07-24T23:18:59.159Z,87.2
2023-07-24T23:34:33.370Z,86.7
2023-07-24T23:50:07.670Z,87.5
